sensor_id;sensor_type;location;lat;lon;timestamp;pressure;altitude;pressure_sealevel;temperature;humidity
6389;BME280;3227;42.654;23.360;2023-04-09T00:00:20;94625.84;;;8.47;91.52
6389;BME280;3227;42.654;23.360;2023-04-09T00:02:48;94623.31;;;8.50;91.15
6389;BME280;3227;42.654;23.360;2023-04-09T00:05:15;94612.16;;;8.42;90.74
6389;BME280;3227;42.654;23.360;2023-04-09T00:07:41;94622.38;;;8.40;90.88
6389;BME280;3227;42.654;23.360;2023-04-09T00:10:08;94619.00;;;8.43;92.17
6389;BME280;3227;42.654;23.360;2023-04-09T00:12:35;94615.56;;;8.40;91.24
6389;BME280;3227;42.654;23.360;2023-04-09T00:15:02;94625.88;;;8.50;91.14
6389;BME280;3227;42.654;23.360;2023-04-09T00:17:29;94607.00;;;8.34;91.31
6389;BME280;3227;42.654;23.360;2023-04-09T00:19:57;94624.81;;;8.29;91.38
6389;BME280;3227;42.654;23.360;2023-04-09T00:22:24;94637.69;;;8.38;91.48
6389;BME280;3227;42.654;23.360;2023-04-09T00:24:51;94624.81;;;8.29;91.75
6389;BME280;3227;42.654;23.360;2023-04-09T00:27:18;94628.44;;;8.48;91.62
6389;BME280;3227;42.654;23.360;2023-04-09T00:29:45;94577.88;;;8.18;92.23
6389;BME280;3227;42.654;23.360;2023-04-09T00:32:12;94633.59;;;8.54;91.84
6389;BME280;3227;42.654;23.360;2023-04-09T00:34:39;94613.88;;;8.41;92.09
6389;BME280;3227;42.654;23.360;2023-04-09T00:37:08;94639.50;;;8.52;92.08
6389;BME280;3227;42.654;23.360;2023-04-09T00:39:34;94631.00;;;8.53;92.45
6389;BME280;3227;42.654;23.360;2023-04-09T00:42:01;94604.38;;;8.29;92.67
6389;BME280;3227;42.654;23.360;2023-04-09T00:44:28;94623.31;;;8.48;93.23
6389;BME280;3227;42.654;23.360;2023-04-09T00:46:57;94603.66;;;8.41;93.17
6389;BME280;3227;42.654;23.360;2023-04-09T00:49:24;94570.22;;;8.18;92.60
6389;BME280;3227;42.654;23.360;2023-04-09T00:51:51;94626.78;;;8.55;92.69
6389;BME280;3227;42.654;23.360;2023-04-09T00:54:19;94627.69;;;8.63;93.32
6389;BME280;3227;42.654;23.360;2023-04-09T00:56:46;94627.78;;;8.72;92.77
6389;BME280;3227;42.654;23.360;2023-04-09T00:59:13;94629.53;;;8.79;92.14
6389;BME280;3227;42.654;23.360;2023-04-09T01:01:40;94627.00;;;8.81;91.49
6389;BME280;3227;42.654;23.360;2023-04-09T01:04:07;94628.66;;;8.72;92.04
6389;BME280;3227;42.654;23.360;2023-04-09T01:06:41;94629.38;;;8.61;91.85
6389;BME280;3227;42.654;23.360;2023-04-09T01:09:13;94627.75;;;8.69;92.22
6389;BME280;3227;42.654;23.360;2023-04-09T01:11:52;94638.75;;;8.62;91.80
6389;BME280;3227;42.654;23.360;2023-04-09T01:14:26;94642.19;;;8.65;91.98
6389;BME280;3227;42.654;23.360;2023-04-09T01:16:59;94637.09;;;8.68;91.47
6389;BME280;3227;42.654;23.360;2023-04-09T01:19:40;94639.72;;;8.76;91.17
6389;BME280;3227;42.654;23.360;2023-04-09T01:22:16;94637.97;;;8.69;91.64
6389;BME280;3227;42.654;23.360;2023-04-09T01:24:59;94640.50;;;8.67;91.32
6389;BME280;3227;42.654;23.360;2023-04-09T01:27:38;94637.09;;;8.64;92.14
6389;BME280;3227;42.654;23.360;2023-04-09T01:30:11;94615.72;;;8.56;91.59
6389;BME280;3227;42.654;23.360;2023-04-09T01:32:41;94633.66;;;8.65;92.10
6389;BME280;3227;42.654;23.360;2023-04-09T01:35:09;94639.66;;;8.68;91.57
6389;BME280;3227;42.654;23.360;2023-04-09T01:37:36;94641.41;;;8.71;91.51
6389;BME280;3227;42.654;23.360;2023-04-09T01:40:05;94637.13;;;8.73;90.99
6389;BME280;3227;42.654;23.360;2023-04-09T01:42:32;94634.56;;;8.70;91.16
6389;BME280;3227;42.654;23.360;2023-04-09T01:45:01;94636.31;;;8.75;91.36
6389;BME280;3227;42.654;23.360;2023-04-09T01:47:30;94642.22;;;8.70;90.91
6389;BME280;3227;42.654;23.360;2023-04-09T01:49:57;94634.34;;;8.49;92.04
6389;BME280;3227;42.654;23.360;2023-04-09T01:52:24;94630.94;;;8.45;92.20
6389;BME280;3227;42.654;23.360;2023-04-09T01:54:51;94633.53;;;8.50;91.70
6389;BME280;3227;42.654;23.360;2023-04-09T01:57:18;94630.13;;;8.51;91.96
6389;BME280;3227;42.654;23.360;2023-04-09T01:59:45;94631.75;;;8.41;92.00
6389;BME280;3227;42.654;23.360;2023-04-09T02:02:17;94637.66;;;8.35;92.15
6389;BME280;3227;42.654;23.360;2023-04-09T02:04:48;94640.22;;;8.40;92.29
6389;BME280;3227;42.654;23.360;2023-04-09T02:07:21;94629.19;;;8.39;92.12
6389;BME280;3227;42.654;23.360;2023-04-09T02:09:52;94633.47;;;8.44;91.96
6389;BME280;3227;42.654;23.360;2023-04-09T02:12:22;94641.19;;;8.50;91.87
6389;BME280;3227;42.654;23.360;2023-04-09T02:14:50;94636.09;;;8.51;91.23
6389;BME280;3227;42.654;23.360;2023-04-09T02:17:18;94641.22;;;8.53;91.95
6389;BME280;3227;42.654;23.360;2023-04-09T02:19:46;94638.63;;;8.50;91.42
6389;BME280;3227;42.654;23.360;2023-04-09T02:22:14;94640.25;;;8.38;91.96
6389;BME280;3227;42.654;23.360;2023-04-09T02:24:41;94635.97;;;8.37;92.24
6389;BME280;3227;42.654;23.360;2023-04-09T02:27:08;94638.53;;;8.37;92.13
6389;BME280;3227;42.654;23.360;2023-04-09T02:29:35;94629.09;;;8.32;92.03
6389;BME280;3227;42.654;23.360;2023-04-09T02:32:01;94635.13;;;8.37;91.81
6389;BME280;3227;42.654;23.360;2023-04-09T02:34:28;94632.53;;;8.35;91.82
6389;BME280;3227;42.654;23.360;2023-04-09T02:36:56;94627.41;;;8.32;91.59
6389;BME280;3227;42.654;23.360;2023-04-09T02:39:23;94632.59;;;8.38;91.21
6389;BME280;3227;42.654;23.360;2023-04-09T02:41:51;94630.81;;;8.34;91.08
6389;BME280;3227;42.654;23.360;2023-04-09T02:44:18;94625.75;;;8.36;91.15
6389;BME280;3227;42.654;23.360;2023-04-09T02:46:46;94623.09;;;8.30;91.34
6389;BME280;3227;42.654;23.360;2023-04-09T02:49:13;94629.13;;;8.33;91.78
6389;BME280;3227;42.654;23.360;2023-04-09T02:51:40;94633.41;;;8.36;91.47
6389;BME280;3227;42.654;23.360;2023-04-09T02:54:08;94630.81;;;8.31;91.53
6389;BME280;3227;42.654;23.360;2023-04-09T02:56:35;94620.50;;;8.25;91.53
6389;BME280;3227;42.654;23.360;2023-04-09T02:59:02;94621.38;;;8.27;91.50
6389;BME280;3227;42.654;23.360;2023-04-09T03:01:28;94618.91;;;8.35;90.86
6389;BME280;3227;42.654;23.360;2023-04-09T03:03:55;94629.19;;;8.43;91.06
6389;BME280;3227;42.654;23.360;2023-04-09T03:06:22;94623.28;;;8.45;90.22
6389;BME280;3227;42.654;23.360;2023-04-09T03:08:49;94624.97;;;8.43;89.70
6389;BME280;3227;42.654;23.360;2023-04-09T03:11:17;94623.22;;;8.39;89.79
6389;BME280;3227;42.654;23.360;2023-04-09T03:13:44;94624.03;;;8.36;89.41
6389;BME280;3227;42.654;23.360;2023-04-09T03:16:10;94624.03;;;8.36;89.25
6389;BME280;3227;42.654;23.360;2023-04-09T03:18:37;94633.44;;;8.39;88.95
6389;BME280;3227;42.654;23.360;2023-04-09T03:21:04;94628.31;;;8.37;88.25
6389;BME280;3227;42.654;23.360;2023-04-09T03:23:32;94623.16;;;8.33;88.98
6389;BME280;3227;42.654;23.360;2023-04-09T03:26:00;94622.28;;;8.32;89.59
6389;BME280;3227;42.654;23.360;2023-04-09T03:28:29;94619.69;;;8.29;89.52
6389;BME280;3227;42.654;23.360;2023-04-09T03:30:56;94625.63;;;8.28;89.45
6389;BME280;3227;42.654;23.360;2023-04-09T03:33:22;94619.66;;;8.28;89.88
6389;BME280;3227;42.654;23.360;2023-04-09T03:35:50;94630.69;;;8.24;89.68
6389;BME280;3227;42.654;23.360;2023-04-09T03:38:16;94631.53;;;8.21;90.02
6389;BME280;3227;42.654;23.360;2023-04-09T03:40:44;94631.50;;;8.20;89.89
6389;BME280;3227;42.654;23.360;2023-04-09T03:43:10;94633.22;;;8.21;90.23
6389;BME280;3227;42.654;23.360;2023-04-09T03:45:38;94628.13;;;8.24;90.65
6389;BME280;3227;42.654;23.360;2023-04-09T03:48:05;94622.16;;;8.20;90.39
6389;BME280;3227;42.654;23.360;2023-04-09T03:50:37;94629.03;;;8.27;90.21
6389;BME280;3227;42.654;23.360;2023-04-09T03:53:04;94629.97;;;8.31;90.23
6389;BME280;3227;42.654;23.360;2023-04-09T03:55:31;94635.97;;;8.37;89.68
6389;BME280;3227;42.654;23.360;2023-04-09T03:57:58;94627.44;;;8.35;89.31
6389;BME280;3227;42.654;23.360;2023-04-09T04:00:24;94634.31;;;8.43;89.14
6389;BME280;3227;42.654;23.360;2023-04-09T04:02:53;94637.75;;;8.46;89.00
6389;BME280;3227;42.654;23.360;2023-04-09T04:05:24;94644.63;;;8.52;88.77
6389;BME280;3227;42.654;23.360;2023-04-09T04:07:56;94647.22;;;8.55;88.34
6389;BME280;3227;42.654;23.360;2023-04-09T04:10:23;94653.16;;;8.54;88.80
6389;BME280;3227;42.654;23.360;2023-04-09T04:12:50;94634.47;;;8.56;88.14
6389;BME280;3227;42.654;23.360;2023-04-09T04:15:17;94637.84;;;8.57;88.77
6389;BME280;3227;42.654;23.360;2023-04-09T04:17:44;94640.41;;;8.58;88.78
6389;BME280;3227;42.654;23.360;2023-04-09T04:20:12;94638.78;;;8.66;88.00
6389;BME280;3227;42.654;23.360;2023-04-09T04:22:39;94642.25;;;8.71;87.90
6389;BME280;3227;42.654;23.360;2023-04-09T04:25:06;94643.13;;;8.76;86.90
6389;BME280;3227;42.654;23.360;2023-04-09T04:27:33;94639.75;;;8.79;87.28
6389;BME280;3227;42.654;23.360;2023-04-09T04:30:00;94644.06;;;8.85;86.92
6389;BME280;3227;42.654;23.360;2023-04-09T04:32:27;94650.88;;;8.86;86.80
6389;BME280;3227;42.654;23.360;2023-04-09T04:34:54;94647.50;;;8.88;86.63
6389;BME280;3227;42.654;23.360;2023-04-09T04:37:23;94652.63;;;8.93;86.52
6389;BME280;3227;42.654;23.360;2023-04-09T04:40:00;94621.00;;;8.77;85.89
6389;BME280;3227;42.654;23.360;2023-04-09T04:42:27;94651.81;;;8.98;85.60
6389;BME280;3227;42.654;23.360;2023-04-09T04:44:54;94656.09;;;8.96;85.09
6389;BME280;3227;42.654;23.360;2023-04-09T04:47:20;94649.22;;;8.89;85.37
6389;BME280;3227;42.654;23.360;2023-04-09T04:49:47;94617.44;;;8.60;85.79
6389;BME280;3227;42.654;23.360;2023-04-09T04:52:14;94650.91;;;8.89;86.51
6389;BME280;3227;42.654;23.360;2023-04-09T04:54:42;94641.47;;;8.83;86.11
6389;BME280;3227;42.654;23.360;2023-04-09T04:57:09;94658.66;;;8.99;85.60
6389;BME280;3227;42.654;23.360;2023-04-09T04:59:36;94662.13;;;9.07;84.97
6389;BME280;3227;42.654;23.360;2023-04-09T05:02:04;94664.66;;;9.06;84.30
6389;BME280;3227;42.654;23.360;2023-04-09T05:04:30;94663.75;;;8.99;85.33
6389;BME280;3227;42.654;23.360;2023-04-09T05:06:57;94657.00;;;9.07;85.17
6389;BME280;3227;42.654;23.360;2023-04-09T05:09:24;94657.94;;;9.14;85.58
6389;BME280;3227;42.654;23.360;2023-04-09T05:11:52;94661.44;;;9.30;84.31
6389;BME280;3227;42.654;23.360;2023-04-09T05:14:19;94660.66;;;9.43;84.04
6389;BME280;3227;42.654;23.360;2023-04-09T05:16:46;94668.44;;;9.55;83.43
6389;BME280;3227;42.654;23.360;2023-04-09T05:19:13;94668.56;;;9.82;82.44
6389;BME280;3227;42.654;23.360;2023-04-09T05:21:40;94659.28;;;10.09;82.31
6389;BME280;3227;42.654;23.360;2023-04-09T05:24:07;94667.91;;;10.24;81.05
6389;BME280;3227;42.654;23.360;2023-04-09T05:26:33;94666.22;;;10.25;80.63
6389;BME280;3227;42.654;23.360;2023-04-09T05:29:02;94668.66;;;10.01;81.10
6389;BME280;3227;42.654;23.360;2023-04-09T05:31:28;94660.09;;;9.92;82.37
6389;BME280;3227;42.654;23.360;2023-04-09T05:33:55;94671.19;;;9.95;82.49
6389;BME280;3227;42.654;23.360;2023-04-09T05:36:22;94653.25;;;9.87;83.39
6389;BME280;3227;42.654;23.360;2023-04-09T05:38:48;94664.34;;;9.87;83.88
6389;BME280;3227;42.654;23.360;2023-04-09T05:41:15;94660.03;;;9.82;84.18
6389;BME280;3227;42.654;23.360;2023-04-09T05:43:42;94663.47;;;9.85;83.59
6389;BME280;3227;42.654;23.360;2023-04-09T05:46:10;94663.44;;;9.82;83.70
6389;BME280;3227;42.654;23.360;2023-04-09T05:48:37;94665.19;;;9.88;83.56
6389;BME280;3227;42.654;23.360;2023-04-09T05:51:04;94670.28;;;9.85;83.00
6389;BME280;3227;42.654;23.360;2023-04-09T05:53:31;94664.31;;;9.84;83.31
6389;BME280;3227;42.654;23.360;2023-04-09T05:55:58;94669.47;;;9.97;82.89
6389;BME280;3227;42.654;23.360;2023-04-09T05:58:25;94662.72;;;10.14;82.25
6389;BME280;3227;42.654;23.360;2023-04-09T06:00:53;94664.47;;;10.18;81.03
6389;BME280;3227;42.654;23.360;2023-04-09T06:03:21;94663.69;;;10.28;81.20
6389;BME280;3227;42.654;23.360;2023-04-09T06:05:48;94662.81;;;10.32;81.11
6389;BME280;3227;42.654;23.360;2023-04-09T06:08:15;94665.41;;;10.43;80.22
6389;BME280;3227;42.654;23.360;2023-04-09T06:10:42;94664.53;;;10.39;78.53
6389;BME280;3227;42.654;23.360;2023-04-09T06:13:09;94671.38;;;10.39;78.69
6389;BME280;3227;42.654;23.360;2023-04-09T06:15:36;94668.75;;;10.23;78.38
6389;BME280;3227;42.654;23.360;2023-04-09T06:18:03;94678.19;;;10.35;78.81
6389;BME280;3227;42.654;23.360;2023-04-09T06:20:32;94668.03;;;10.67;77.25
6389;BME280;3227;42.654;23.360;2023-04-09T06:22:59;94652.66;;;10.78;75.45
6389;BME280;3227;42.654;23.360;2023-04-09T06:25:25;94662.94;;;11.02;75.34
6389;BME280;3227;42.654;23.360;2023-04-09T06:27:52;94665.47;;;11.22;74.60
6389;BME280;3227;42.654;23.360;2023-04-09T06:30:19;94669.75;;;11.33;73.92
6389;BME280;3227;42.654;23.360;2023-04-09T06:32:47;94663.78;;;11.31;72.55
6389;BME280;3227;42.654;23.360;2023-04-09T06:35:14;94656.09;;;11.34;74.18
6389;BME280;3227;42.654;23.360;2023-04-09T06:37:42;94675.69;;;11.73;71.64
6389;BME280;3227;42.654;23.360;2023-04-09T06:40:10;94669.63;;;12.03;70.46
6389;BME280;3227;42.654;23.360;2023-04-09T06:42:36;94676.47;;;12.07;68.29
6389;BME280;3227;42.654;23.360;2023-04-09T06:45:04;94667.97;;;11.93;67.99
6389;BME280;3227;42.654;23.360;2023-04-09T06:47:32;94683.28;;;12.11;69.13
6389;BME280;3227;42.654;23.360;2023-04-09T06:49:59;94685.00;;;12.12;68.46
6389;BME280;3227;42.654;23.360;2023-04-09T06:52:26;94689.28;;;12.12;66.32
6389;BME280;3227;42.654;23.360;2023-04-09T06:54:54;94680.72;;;12.13;67.12
6389;BME280;3227;42.654;23.360;2023-04-09T06:57:21;94683.31;;;12.08;66.83
6389;BME280;3227;42.654;23.360;2023-04-09T06:59:48;94682.44;;;12.14;66.66
6389;BME280;3227;42.654;23.360;2023-04-09T07:02:15;94679.00;;;12.15;65.33
6389;BME280;3227;42.654;23.360;2023-04-09T07:04:41;94687.63;;;12.00;65.78
6389;BME280;3227;42.654;23.360;2023-04-09T07:07:08;94652.59;;;11.78;66.90
6389;BME280;3227;42.654;23.360;2023-04-09T07:09:35;94636.34;;;11.82;66.15
6389;BME280;3227;42.654;23.360;2023-04-09T07:12:03;94682.47;;;12.08;64.66
6389;BME280;3227;42.654;23.360;2023-04-09T07:14:30;94632.09;;;11.48;66.41
6389;BME280;3227;42.654;23.360;2023-04-09T07:16:57;94711.66;;;11.86;66.53
6389;BME280;3227;42.654;23.360;2023-04-09T07:19:34;94703.94;;;11.57;66.59
6389;BME280;3227;42.654;23.360;2023-04-09T07:22:00;94673.16;;;11.38;67.54
6389;BME280;3227;42.654;23.360;2023-04-09T07:24:27;94696.28;;;11.43;66.85
6389;BME280;3227;42.654;23.360;2023-04-09T07:26:54;94695.41;;;11.39;66.30
6389;BME280;3227;42.654;23.360;2023-04-09T07:29:22;94700.53;;;11.12;67.53
6389;BME280;3227;42.654;23.360;2023-04-09T07:31:49;94677.44;;;10.82;66.37
6389;BME280;3227;42.654;23.360;2023-04-09T07:34:16;94694.53;;;10.83;67.90
6389;BME280;3227;42.654;23.360;2023-04-09T07:36:42;94701.38;;;11.13;68.93
6389;BME280;3227;42.654;23.360;2023-04-09T07:39:09;94709.09;;;11.25;67.04
6389;BME280;3227;42.654;23.360;2023-04-09T07:41:36;94695.41;;;11.33;68.28
6389;BME280;3227;42.654;23.360;2023-04-09T07:44:03;94711.66;;;11.52;66.91
6389;BME280;3227;42.654;23.360;2023-04-09T07:46:32;94713.38;;;11.30;65.76
6389;BME280;3227;42.654;23.360;2023-04-09T07:48:59;94707.38;;;11.22;66.40
6389;BME280;3227;42.654;23.360;2023-04-09T07:51:25;94716.81;;;11.28;67.83
6389;BME280;3227;42.654;23.360;2023-04-09T07:53:52;94723.66;;;11.44;66.57
6389;BME280;3227;42.654;23.360;2023-04-09T07:56:20;94712.50;;;11.80;66.04
6389;BME280;3227;42.654;23.360;2023-04-09T07:58:47;94705.63;;;11.93;63.83
6389;BME280;3227;42.654;23.360;2023-04-09T08:01:15;94713.38;;;11.61;63.07
6389;BME280;3227;42.654;23.360;2023-04-09T08:03:43;94712.53;;;11.53;63.95
6389;BME280;3227;42.654;23.360;2023-04-09T08:06:10;94712.50;;;11.57;65.80
6389;BME280;3227;42.654;23.360;2023-04-09T08:08:36;94724.47;;;11.60;64.26
6389;BME280;3227;42.654;23.360;2023-04-09T08:11:04;94720.22;;;11.59;64.58
6389;BME280;3227;42.654;23.360;2023-04-09T08:13:31;94668.91;;;11.16;64.52
6389;BME280;3227;42.654;23.360;2023-04-09T08:15:59;94732.19;;;11.40;66.50
6389;BME280;3227;42.654;23.360;2023-04-09T08:18:26;94665.50;;;11.10;65.45
6389;BME280;3227;42.654;23.360;2023-04-09T08:20:57;94726.22;;;11.42;65.37
6389;BME280;3227;42.654;23.360;2023-04-09T08:23:24;94726.19;;;11.30;66.12
6389;BME280;3227;42.654;23.360;2023-04-09T08:25:50;94740.72;;;11.25;66.94
6389;BME280;3227;42.654;23.360;2023-04-09T08:28:17;94722.75;;;11.22;66.91
6389;BME280;3227;42.654;23.360;2023-04-09T08:30:44;94729.63;;;11.34;66.73
6389;BME280;3227;42.654;23.360;2023-04-09T08:33:12;94730.47;;;11.33;66.64
6389;BME280;3227;42.654;23.360;2023-04-09T08:35:39;94731.31;;;11.32;66.80
6389;BME280;3227;42.654;23.360;2023-04-09T08:38:08;94739.91;;;11.44;67.07
6389;BME280;3227;42.654;23.360;2023-04-09T08:40:35;94706.53;;;11.29;67.26
6389;BME280;3227;42.654;23.360;2023-04-09T08:43:04;94731.31;;;11.24;68.59
6389;BME280;3227;42.654;23.360;2023-04-09T08:45:31;94726.19;;;11.39;67.95
6389;BME280;3227;42.654;23.360;2023-04-09T08:47:59;94722.75;;;11.63;68.41
6389;BME280;3227;42.654;23.360;2023-04-09T08:50:33;94715.09;;;11.75;66.95
6389;BME280;3227;42.654;23.360;2023-04-09T08:53:01;94718.47;;;11.93;66.34
6389;BME280;3227;42.654;23.360;2023-04-09T08:55:30;94711.56;;;12.13;65.97
6389;BME280;3227;42.654;23.360;2023-04-09T08:57:59;94722.72;;;11.95;65.01
6389;BME280;3227;42.654;23.360;2023-04-09T09:00:26;94716.75;;;11.70;67.27
6389;BME280;3227;42.654;23.360;2023-04-09T09:03:03;94715.03;;;12.00;65.90
6389;BME280;3227;42.654;23.360;2023-04-09T09:05:39;94665.38;;;11.99;65.82
6389;BME280;3227;42.654;23.360;2023-04-09T09:08:07;94714.00;;;12.49;64.48
6389;BME280;3227;42.654;23.360;2023-04-09T09:10:40;94710.53;;;12.55;63.53
6389;BME280;3227;42.654;23.360;2023-04-09T09:15:44;94708.59;;;12.95;63.58
6389;BME280;3227;42.654;23.360;2023-04-09T09:18:14;94703.53;;;12.81;62.57
6389;BME280;3227;42.654;23.360;2023-04-09T09:20:41;94698.44;;;12.69;62.64
6389;BME280;3227;42.654;23.360;2023-04-09T09:23:08;94703.69;;;12.52;62.80
6389;BME280;3227;42.654;23.360;2023-04-09T09:25:40;94702.81;;;12.60;62.62
6389;BME280;3227;42.654;23.360;2023-04-09T09:28:08;94702.78;;;12.67;61.89
6389;BME280;3227;42.654;23.360;2023-04-09T09:30:35;94689.84;;;12.78;62.01
6389;BME280;3227;42.654;23.360;2023-04-09T09:33:05;94685.41;;;13.01;60.80
6389;BME280;3227;42.654;23.360;2023-04-09T09:35:45;94691.16;;;13.35;60.51
6389;BME280;3227;42.654;23.360;2023-04-09T09:38:13;94667.13;;;13.36;59.31
6389;BME280;3227;42.654;23.360;2023-04-09T09:40:42;94685.88;;;13.53;59.32
6389;BME280;3227;42.654;23.360;2023-04-09T09:43:09;94680.81;;;13.43;57.59
6389;BME280;3227;42.654;23.360;2023-04-09T09:45:36;94659.47;;;13.33;58.09
6389;BME280;3227;42.654;23.360;2023-04-09T09:48:03;94684.84;;;13.69;57.69
6389;BME280;3227;42.654;23.360;2023-04-09T09:50:30;94665.22;;;13.59;56.84
6389;BME280;3227;42.654;23.360;2023-04-09T09:53:03;94648.97;;;13.56;56.94
6389;BME280;3227;42.654;23.360;2023-04-09T09:55:31;94681.38;;;13.75;56.44
6389;BME280;3227;42.654;23.360;2023-04-09T09:58:01;94683.84;;;13.84;55.19
6389;BME280;3227;42.654;23.360;2023-04-09T10:00:31;94677.81;;;13.90;56.71
6389;BME280;3227;42.654;23.360;2023-04-09T10:03:05;94539.69;;;12.99;54.54
6389;BME280;3227;42.654;23.360;2023-04-09T10:05:34;94667.59;;;13.78;55.79
6389;BME280;3227;42.654;23.360;2023-04-09T10:08:03;94663.25;;;13.84;54.84
6389;BME280;3227;42.654;23.360;2023-04-09T10:10:31;94666.81;;;13.73;55.15
6389;BME280;3227;42.654;23.360;2023-04-09T10:12:59;94660.78;;;13.75;56.15
6389;BME280;3227;42.654;23.360;2023-04-09T10:15:27;94630.09;;;13.54;55.42
6389;BME280;3227;42.654;23.360;2023-04-09T10:17:55;94635.44;;;13.32;56.66
6389;BME280;3227;42.654;23.360;2023-04-09T10:20:26;94616.72;;;13.17;55.86
6389;BME280;3227;42.654;23.360;2023-04-09T10:22:56;94651.53;;;13.54;55.96
6389;BME280;3227;42.654;23.360;2023-04-09T10:25:24;94655.75;;;13.63;55.72
6389;BME280;3227;42.654;23.360;2023-04-09T10:28:00;94605.34;;;13.39;54.74
6389;BME280;3227;42.654;23.360;2023-04-09T10:30:31;94647.84;;;13.83;54.45
6389;BME280;3227;42.654;23.360;2023-04-09T10:33:08;94624.53;;;13.92;53.76
6389;BME280;3227;42.654;23.360;2023-04-09T10:35:34;94644.03;;;14.14;54.13
6389;BME280;3227;42.654;23.360;2023-04-09T10:38:01;94642.34;;;14.10;54.29
6389;BME280;3227;42.654;23.360;2023-04-09T10:40:29;94640.69;;;14.07;53.78
6389;BME280;3227;42.654;23.360;2023-04-09T10:42:57;94633.34;;;13.73;54.37
6389;BME280;3227;42.654;23.360;2023-04-09T10:45:38;94640.38;;;13.57;55.95
6389;BME280;3227;42.654;23.360;2023-04-09T10:48:11;94629.44;;;13.32;56.51
6389;BME280;3227;42.654;23.360;2023-04-09T10:50:41;94634.53;;;13.40;56.28
6389;BME280;3227;42.654;23.360;2023-04-09T10:53:20;94625.81;;;13.53;56.14
6389;BME280;3227;42.654;23.360;2023-04-09T10:55:48;94624.84;;;13.63;55.93
6389;BME280;3227;42.654;23.360;2023-04-09T10:58:15;94571.16;;;13.28;55.47
6389;BME280;3227;42.654;23.360;2023-04-09T11:00:44;94620.56;;;13.63;54.55
6389;BME280;3227;42.654;23.360;2023-04-09T11:03:22;94616.34;;;13.55;55.20
6389;BME280;3227;42.654;23.360;2023-04-09T11:05:53;94615.50;;;13.56;55.06
6389;BME280;3227;42.654;23.360;2023-04-09T11:08:21;94606.72;;;13.72;55.47
6389;BME280;3227;42.654;23.360;2023-04-09T11:10:48;94604.91;;;13.80;54.15
6389;BME280;3227;42.654;23.360;2023-04-09T11:13:17;94607.84;;;13.50;56.33
6389;BME280;3227;42.654;23.360;2023-04-09T11:15:45;94605.53;;;13.21;58.90
6389;BME280;3227;42.654;23.360;2023-04-09T11:18:19;94550.81;;;12.99;57.72
6389;BME280;3227;42.654;23.360;2023-04-09T11:20:46;94611.44;;;13.33;57.99
6389;BME280;3227;42.654;23.360;2023-04-09T11:23:14;94569.50;;;13.19;59.16
6389;BME280;3227;42.654;23.360;2023-04-09T11:25:41;94589.91;;;13.42;58.00
6389;BME280;3227;42.654;23.360;2023-04-09T11:28:08;94597.50;;;13.51;59.26
6389;BME280;3227;42.654;23.360;2023-04-09T11:30:35;94602.56;;;13.59;57.87
6389;BME280;3227;42.654;23.360;2023-04-09T11:33:05;94598.94;;;13.78;57.54
6389;BME280;3227;42.654;23.360;2023-04-09T11:35:33;94590.22;;;13.91;57.88
6389;BME280;3227;42.654;23.360;2023-04-09T11:38:05;94499.84;;;13.39;57.31
6389;BME280;3227;42.654;23.360;2023-04-09T11:40:32;94590.91;;;14.02;57.53
6389;BME280;3227;42.654;23.360;2023-04-09T11:42:59;94583.84;;;14.18;57.59
6389;BME280;3227;42.654;23.360;2023-04-09T11:45:28;94554.75;;;14.10;56.06
6389;BME280;3227;42.654;23.360;2023-04-09T11:47:56;94583.59;;;14.36;55.69
6389;BME280;3227;42.654;23.360;2023-04-09T11:50:24;94575.00;;;14.37;53.18
6389;BME280;3227;42.654;23.360;2023-04-09T11:52:51;94573.28;;;14.39;52.95
6389;BME280;3227;42.654;23.360;2023-04-09T11:55:23;94560.44;;;14.33;51.43
6389;BME280;3227;42.654;23.360;2023-04-09T11:57:51;94579.19;;;14.48;51.22
6389;BME280;3227;42.654;23.360;2023-04-09T12:00:19;94545.66;;;14.48;48.48
6389;BME280;3227;42.654;23.360;2023-04-09T12:02:57;94580.66;;;14.65;49.02
6389;BME280;3227;42.654;23.360;2023-04-09T12:05:29;94578.22;;;14.55;45.74
6389;BME280;3227;42.654;23.360;2023-04-09T12:07:57;94576.81;;;14.29;46.84
6389;BME280;3227;42.654;23.360;2023-04-09T12:10:29;94572.66;;;14.21;48.58
6389;BME280;3227;42.654;23.360;2023-04-09T12:13:00;94561.44;;;14.23;49.10
6389;BME280;3227;42.654;23.360;2023-04-09T12:15:31;94568.91;;;14.44;51.04
6389;BME280;3227;42.654;23.360;2023-04-09T12:17:58;94557.34;;;14.70;52.13
6389;BME280;3227;42.654;23.360;2023-04-09T12:20:32;94563.28;;;14.75;47.32
6389;BME280;3227;42.654;23.360;2023-04-09T12:23:00;94555.66;;;14.67;45.59
6389;BME280;3227;42.654;23.360;2023-04-09T12:25:28;94564.31;;;14.65;46.99
6389;BME280;3227;42.654;23.360;2023-04-09T12:27:55;94551.47;;;14.62;46.78
6389;BME280;3227;42.654;23.360;2023-04-09T12:30:23;94557.72;;;14.47;46.83
6389;BME280;3227;42.654;23.360;2023-04-09T12:32:50;94556.84;;;14.48;47.01
6389;BME280;3227;42.654;23.360;2023-04-09T12:35:17;94552.66;;;14.39;46.83
6389;BME280;3227;42.654;23.360;2023-04-09T12:37:46;94522.91;;;14.14;48.06
6389;BME280;3227;42.654;23.360;2023-04-09T12:40:12;94545.78;;;14.40;47.54
6389;BME280;3227;42.654;23.360;2023-04-09T12:42:39;94549.03;;;14.51;48.65
6389;BME280;3227;42.654;23.360;2023-04-09T12:45:07;94550.75;;;14.51;46.20
6389;BME280;3227;42.654;23.360;2023-04-09T12:47:34;94538.91;;;14.40;45.77
6389;BME280;3227;42.654;23.360;2023-04-09T12:50:16;94548.56;;;14.23;47.63
6389;BME280;3227;42.654;23.360;2023-04-09T12:52:43;94546.75;;;14.28;49.40
6389;BME280;3227;42.654;23.360;2023-04-09T12:55:12;94542.28;;;14.42;48.06
6389;BME280;3227;42.654;23.360;2023-04-09T12:57:41;94543.25;;;14.34;46.48
6389;BME280;3227;42.654;23.360;2023-04-09T13:00:09;94542.16;;;14.52;47.50
6389;BME280;3227;42.654;23.360;2023-04-09T13:02:36;94541.16;;;14.62;47.85
6389;BME280;3227;42.654;23.360;2023-04-09T13:05:03;94514.75;;;14.44;48.15
6389;BME280;3227;42.654;23.360;2023-04-09T13:07:30;94538.06;;;14.37;47.80
6389;BME280;3227;42.654;23.360;2023-04-09T13:10:18;94526.88;;;14.36;49.48
6389;BME280;3227;42.654;23.360;2023-04-09T13:12:45;94539.81;;;14.33;47.22
6389;BME280;3227;42.654;23.360;2023-04-09T13:15:11;94542.59;;;14.18;48.37
6389;BME280;3227;42.654;23.360;2023-04-09T13:17:38;94528.91;;;14.16;48.06
6389;BME280;3227;42.654;23.360;2023-04-09T13:20:06;94537.50;;;14.15;48.43
6389;BME280;3227;42.654;23.360;2023-04-09T13:22:33;94531.41;;;14.21;48.01